Terminal Aerodrome Forecast
Issued by NWS

Home | Current Version | Previous Version | Text Only | Print | Product List | Glossary On
Versions: 1 2 3 4 5 6 7 8 9 10 11 12
345
FTUS45 KABQ 280520
TAFAEG
TAF
KAEG 280520Z 2806/2906 30010KT P6SM SCT080 SCT120
     FM280800 32006KT P6SM SCT120
     FM281700 19007KT P6SM SKC
     FM282000 23008KT P6SM SCT090=

USA.gov is the U.S. government's official web portal to all federal, state and local government web resources and services.